Time;durP1;ratioP1;P1;durP2;ratioP2;P2;SDS_P1;SDS_P2;PMS_P1;PMS_P2;Temp;Humidity;BMP_temperature;BMP_pressure;BME280_temperature;BME280_humidity;BME280_pressure;Samples;Min_cycle;Max_cycle;Signal;HPM_P1;HPM_P2
2023/04/19 00:00:13;;;;;;;20.35;12.15;;;;;;;;;;4974512;28;20507;-58
2023/04/19 00:02:40;;;;;;;20.15;12.05;;;;;;;;;;4981360;28;20143;-58
2023/04/19 00:05:06;;;;;;;20.45;12.10;;;;;;;;;;4976588;28;20038;-54
2023/04/19 00:07:31;;;;;;;21.52;12.45;;;;;;;;;;4974333;28;20041;-57
2023/04/19 00:09:56;;;;;;;21.92;13.07;;;;;;;;;;4977791;28;20034;-54
2023/04/19 00:12:22;;;;;;;19.23;11.70;;;;;;;;;;4977756;28;20034;-52
2023/04/19 00:14:47;;;;;;;21.27;12.27;;;;;;;;;;4980091;28;20107;-54
2023/04/19 00:17:13;;;;;;;19.98;12.15;;;;;;;;;;4978579;28;20029;-56
2023/04/19 00:19:38;;;;;;;19.27;12.30;;;;;;;;;;4985913;28;20030;-52
2023/04/19 00:22:03;;;;;;;22.02;12.55;;;;;;;;;;4979454;28;20034;-57
2023/04/19 00:24:29;;;;;;;19.30;13.00;;;;;;;;;;4981022;28;20030;-57
2023/04/19 00:26:56;;;;;;;22.45;13.05;;;;;;;;;;4996137;28;20284;-56
2023/04/19 00:29:21;;;;;;;21.90;12.87;;;;;;;;;;4979465;28;20034;-55
2023/04/19 00:31:46;;;;;;;19.55;12.07;;;;;;;;;;4980105;28;20107;-49
2023/04/19 00:34:12;;;;;;;21.40;12.82;;;;;;;;;;4984883;28;20033;-57
2023/04/19 00:36:37;;;;;;;19.75;12.48;;;;;;;;;;4979729;28;20093;-54
2023/04/19 00:39:02;;;;;;;22.00;12.38;;;;;;;;;;4980852;28;20671;-52
2023/04/19 00:41:28;;;;;;;20.88;13.10;;;;;;;;;;4978844;28;20034;-56
2023/04/19 00:43:53;;;;;;;21.85;13.23;;;;;;;;;;4981808;28;20373;-56
2023/04/19 00:46:19;;;;;;;18.77;12.02;;;;;;;;;;4978395;28;20037;-55
2023/04/19 00:48:44;;;;;;;21.42;13.30;;;;;;;;;;4978736;28;20034;-54
2023/04/19 00:51:11;;;;;;;21.67;12.27;;;;;;;;;;4977265;28;20035;-52
2023/04/19 00:53:37;;;;;;;22.88;13.27;;;;;;;;;;4979851;28;20048;-55
2023/04/19 00:56:04;;;;;;;19.20;12.60;;;;;;;;;;4993099;28;20122;-55
2023/04/19 00:58:30;;;;;;;21.38;12.38;;;;;;;;;;4978784;28;20524;-55
2023/04/19 01:00:55;;;;;;;19.70;12.25;;;;;;;;;;4977854;28;20054;-53
2023/04/19 01:03:21;;;;;;;20.63;12.27;;;;;;;;;;4979795;28;20038;-50
2023/04/19 01:05:48;;;;;;;24.67;13.63;;;;;;;;;;4986123;28;20041;-50
2023/04/19 01:08:13;;;;;;;20.35;12.13;;;;;;;;;;4977590;28;20042;-49
2023/04/19 01:10:39;;;;;;;20.40;13.07;;;;;;;;;;4978665;28;20138;-54
2023/04/19 01:13:04;;;;;;;17.85;11.57;;;;;;;;;;4976903;28;20087;-54
2023/04/19 01:15:30;;;;;;;21.25;12.20;;;;;;;;;;4977381;28;20035;-54
2023/04/19 01:17:56;;;;;;;19.95;12.02;;;;;;;;;;4993266;28;20038;-55
2023/04/19 01:20:21;;;;;;;17.17;11.45;;;;;;;;;;4979689;28;20038;-54
2023/04/19 01:22:47;;;;;;;20.13;12.63;;;;;;;;;;4978983;28;20645;-56
2023/04/19 01:25:12;;;;;;;21.92;13.15;;;;;;;;;;4993870;28;20034;-55
2023/04/19 01:27:40;;;;;;;22.20;13.20;;;;;;;;;;4979443;28;20030;-56
2023/04/19 01:30:06;;;;;;;18.95;11.85;;;;;;;;;;4980344;28;20045;-55
2023/04/19 01:32:31;;;;;;;19.58;13.15;;;;;;;;;;4994772;28;20038;-55
2023/04/19 01:34:57;;;;;;;17.63;12.38;;;;;;;;;;4990805;28;20484;-58
2023/04/19 01:37:22;;;;;;;19.15;12.45;;;;;;;;;;4984395;28;20037;-57
2023/04/19 01:39:47;;;;;;;18.40;12.02;;;;;;;;;;4981848;28;20472;-51
2023/04/19 01:42:13;;;;;;;19.08;11.88;;;;;;;;;;4978121;28;20029;-56
2023/04/19 01:44:38;;;;;;;18.35;12.27;;;;;;;;;;4979593;28;20078;-56
2023/04/19 01:47:04;;;;;;;19.05;12.32;;;;;;;;;;4983031;28;20097;-53
2023/04/19 01:49:29;;;;;;;21.15;12.25;;;;;;;;;;4977076;28;20061;-53
2023/04/19 01:51:54;;;;;;;18.77;11.98;;;;;;;;;;4980195;28;20105;-52
2023/04/19 01:54:20;;;;;;;20.65;12.65;;;;;;;;;;4976407;28;20149;-56
2023/04/19 01:56:48;;;;;;;19.70;12.20;;;;;;;;;;4978339;28;20381;-52
2023/04/19 01:59:13;;;;;;;20.35;12.10;;;;;;;;;;4983144;28;20036;-48
2023/04/19 02:01:38;;;;;;;21.23;12.05;;;;;;;;;;4974847;28;20026;-53
2023/04/19 02:04:04;;;;;;;20.05;12.50;;;;;;;;;;4977236;28;20030;-51
2023/04/19 02:06:30;;;;;;;21.08;12.95;;;;;;;;;;4978373;28;20061;-51
2023/04/19 02:08:56;;;;;;;19.67;12.50;;;;;;;;;;4981191;28;20476;-51
2023/04/19 02:11:21;;;;;;;22.20;12.90;;;;;;;;;;4982831;28;20046;-60
2023/04/19 02:13:46;;;;;;;19.00;13.35;;;;;;;;;;4977377;28;20034;-52
2023/04/19 02:16:12;;;;;;;20.92;11.93;;;;;;;;;;4980010;28;20033;-51
2023/04/19 02:18:38;;;;;;;22.05;12.43;;;;;;;;;;4980362;28;20038;-55
2023/04/19 02:21:07;;;;;;;20.52;12.40;;;;;;;;;;4978046;28;20041;-56
2023/04/19 02:23:33;;;;;;;23.80;13.45;;;;;;;;;;4976402;28;20050;-55
2023/04/19 02:26:01;;;;;;;21.33;13.38;;;;;;;;;;4962181;28;20053;-51
2023/04/19 02:28:27;;;;;;;19.75;12.13;;;;;;;;;;4993682;28;20059;-52
2023/04/19 02:30:52;;;;;;;21.77;12.90;;;;;;;;;;4977423;28;20167;-54
2023/04/19 02:33:17;;;;;;;18.52;12.25;;;;;;;;;;4983130;28;20045;-55
2023/04/19 02:35:42;;;;;;;19.52;12.85;;;;;;;;;;4979348;28;20054;-54
2023/04/19 02:38:09;;;;;;;22.65;13.63;;;;;;;;;;4978782;28;20120;-55
2023/04/19 02:40:34;;;;;;;21.85;12.93;;;;;;;;;;4982093;28;20503;-55
2023/04/19 02:42:59;;;;;;;21.05;13.27;;;;;;;;;;4977165;28;20520;-55
2023/04/19 02:45:25;;;;;;;19.00;12.57;;;;;;;;;;4982252;28;20434;-53
2023/04/19 02:47:53;;;;;;;23.23;14.18;;;;;;;;;;4981514;28;20095;-55
2023/04/19 02:50:18;;;;;;;21.23;13.50;;;;;;;;;;4992253;28;20042;-54
2023/04/19 02:52:47;;;;;;;22.80;13.70;;;;;;;;;;4980868;28;20042;-56
2023/04/19 02:55:12;;;;;;;22.73;13.90;;;;;;;;;;4974260;28;20380;-50
2023/04/19 02:57:39;;;;;;;25.15;14.32;;;;;;;;;;4979578;28;20169;-53
2023/04/19 03:00:07;;;;;;;20.90;13.43;;;;;;;;;;4976032;28;20054;-56
2023/04/19 03:02:35;;;;;;;21.25;13.15;;;;;;;;;;4982278;28;20038;-55
2023/04/19 03:05:00;;;;;;;21.80;13.48;;;;;;;;;;4975872;28;20054;-57
2023/04/19 03:07:26;;;;;;;21.42;14.32;;;;;;;;;;4980472;28;20073;-56
2023/04/19 03:09:51;;;;;;;25.10;13.23;;;;;;;;;;4976255;28;20125;-56
2023/04/19 03:12:18;;;;;;;22.63;14.40;;;;;;;;;;4978416;28;20027;-57
2023/04/19 03:14:43;;;;;;;20.58;12.93;;;;;;;;;;4981138;28;20088;-56
2023/04/19 03:17:09;;;;;;;20.90;13.05;;;;;;;;;;4982204;28;20461;-56
2023/04/19 03:19:35;;;;;;;22.33;13.55;;;;;;;;;;4981890;28;20030;-57
2023/04/19 03:22:00;;;;;;;21.98;13.02;;;;;;;;;;4974556;28;20037;-58
2023/04/19 03:24:27;;;;;;;18.35;12.63;;;;;;;;;;4977282;28;20042;-56
2023/04/19 03:26:53;;;;;;;;;;;;;;;;;;4982480;28;20030;-53
2023/04/19 03:29:22;;;;;;;18.67;12.23;;;;;;;;;;4980305;28;19914;-57
2023/04/19 03:32:03;;;;;;;21.65;12.68;;;;;;;;;;4974497;28;20065;-56
2023/04/19 03:34:29;;;;;;;19.35;13.45;;;;;;;;;;4975697;28;20575;-52
2023/04/19 03:36:54;;;;;;;18.85;13.25;;;;;;;;;;4973947;28;20493;-53
2023/04/19 03:39:20;;;;;;;26.15;14.25;;;;;;;;;;4990228;28;20031;-54
2023/04/19 03:41:49;;;;;;;22.17;14.18;;;;;;;;;;4982033;28;20038;-54
2023/04/19 03:44:32;;;;;;;22.95;14.73;;;;;;;;;;4980576;28;20030;-53
2023/04/19 03:47:00;;;;;;;23.55;15.00;;;;;;;;;;4986012;28;20030;-53
2023/04/19 03:49:30;;;;;;;23.83;15.27;;;;;;;;;;4985136;28;20137;-54
2023/04/19 03:52:05;;;;;;;25.55;15.60;;;;;;;;;;4980201;28;20898;-58
2023/04/19 03:54:32;;;;;;;22.38;14.10;;;;;;;;;;4980133;28;20502;-54
2023/04/19 03:56:58;;;;;;;25.27;15.02;;;;;;;;;;4997426;28;20038;-55
2023/04/19 03:59:24;;;;;;;24.08;15.18;;;;;;;;;;4976262;28;20026;-55
2023/04/19 04:01:50;;;;;;;23.33;14.77;;;;;;;;;;4982330;28;20436;-55
2023/04/19 04:04:16;;;;;;;22.60;14.98;;;;;;;;;;4985957;28;20038;-56
2023/04/19 04:06:41;;;;;;;21.65;14.38;;;;;;;;;;4982120;28;20081;-57
2023/04/19 04:09:07;;;;;;;21.02;13.77;;;;;;;;;;4984313;28;20049;-56
2023/04/19 04:11:32;;;;;;;23.17;14.90;;;;;;;;;;4984734;28;20027;-54
2023/04/19 04:13:57;;;;;;;24.52;15.50;;;;;;;;;;4978402;28;20037;-57
2023/04/19 04:16:26;;;;;;;21.58;14.27;;;;;;;;;;4984179;28;20061;-56
2023/04/19 04:18:52;;;;;;;29.23;16.90;;;;;;;;;;4982885;28;20039;-55
2023/04/19 04:21:18;;;;;;;23.27;15.10;;;;;;;;;;4985305;28;20033;-52
2023/04/19 04:23:46;;;;;;;25.10;15.88;;;;;;;;;;4979645;28;20081;-54
2023/04/19 04:26:18;;;;;;;24.33;15.60;;;;;;;;;;4982143;28;20034;-52
2023/04/19 04:29:01;;;;;;;25.52;15.00;;;;;;;;;;4981975;28;20042;-54
2023/04/19 04:31:28;;;;;;;23.98;15.75;;;;;;;;;;4966591;28;20117;-56
2023/04/19 04:33:54;;;;;;;26.73;15.80;;;;;;;;;;4969079;28;20549;-57
2023/04/19 04:36:20;;;;;;;25.48;15.93;;;;;;;;;;4993560;28;20497;-55
2023/04/19 04:38:46;;;;;;;25.17;16.30;;;;;;;;;;4981620;28;20030;-56
2023/04/19 04:41:12;;;;;;;25.55;14.82;;;;;;;;;;4978187;28;20431;-59
2023/04/19 04:43:38;;;;;;;23.65;14.65;;;;;;;;;;4991208;28;20539;-53
2023/04/19 04:46:03;;;;;;;24.52;15.27;;;;;;;;;;4995162;28;20030;-56
2023/04/19 04:48:34;;;;;;;23.70;14.65;;;;;;;;;;4982541;28;20065;-54
2023/04/19 04:50:59;;;;;;;22.05;14.73;;;;;;;;;;4985497;28;20073;-56
2023/04/19 04:53:26;;;;;;;22.77;15.37;;;;;;;;;;4980363;28;20030;-55
2023/04/19 04:55:52;;;;;;;23.65;14.40;;;;;;;;;;4981121;28;20292;-55
2023/04/19 04:58:18;;;;;;;24.20;15.05;;;;;;;;;;4979861;28;20026;-54
2023/04/19 05:00:55;;;;;;;25.42;14.30;;;;;;;;;;4977035;28;20133;-57
2023/04/19 05:03:22;;;;;;;22.30;13.68;;;;;;;;;;4978691;28;20046;-56
2023/04/19 05:05:53;;;;;;;24.05;15.32;;;;;;;;;;4983759;28;20427;-53
2023/04/19 05:08:18;;;;;;;25.23;14.48;;;;;;;;;;4985866;28;20088;-52
2023/04/19 05:10:44;;;;;;;24.13;15.27;;;;;;;;;;4977220;28;20033;-57
2023/04/19 05:13:11;;;;;;;23.65;14.75;;;;;;;;;;4977801;28;20186;-53
2023/04/19 05:15:37;;;;;;;22.10;13.85;;;;;;;;;;4979507;28;20038;-57
2023/04/19 05:18:03;;;;;;;22.17;13.98;;;;;;;;;;4978278;28;20033;-56
2023/04/19 05:20:28;;;;;;;22.65;14.27;;;;;;;;;;4982632;28;20100;-51
2023/04/19 05:23:02;;;;;;;21.80;13.68;;;;;;;;;;4992762;28;20087;-58
2023/04/19 05:25:30;;;;;;;25.55;14.98;;;;;;;;;;4948358;28;20954;-55
2023/04/19 05:27:56;;;;;;;21.42;13.38;;;;;;;;;;4994334;28;20031;-55
2023/04/19 05:30:22;;;;;;;19.17;12.75;;;;;;;;;;4977916;28;20560;-56
2023/04/19 05:32:48;;;;;;;20.88;13.63;;;;;;;;;;4991165;28;20551;-53
2023/04/19 05:35:14;;;;;;;20.00;12.75;;;;;;;;;;4976702;28;20038;-52
2023/04/19 05:37:40;;;;;;;19.83;13.40;;;;;;;;;;4985337;28;20030;-57
2023/04/19 05:40:08;;;;;;;21.90;13.02;;;;;;;;;;4992574;28;20034;-58
2023/04/19 05:42:34;;;;;;;22.27;13.50;;;;;;;;;;4979729;28;20027;-57
2023/04/19 05:44:59;;;;;;;22.13;12.38;;;;;;;;;;4980884;28;20034;-56
2023/04/19 05:47:26;;;;;;;19.85;12.75;;;;;;;;;;4977643;28;20030;-55
2023/04/19 05:50:03;;;;;;;18.40;12.60;;;;;;;;;;4979875;28;20045;-55
2023/04/19 05:52:43;;;;;;;19.48;12.25;;;;;;;;;;4977970;28;20084;-58
2023/04/19 05:55:09;;;;;;;18.35;11.70;;;;;;;;;;4965141;28;20052;-55
2023/04/19 05:57:39;;;;;;;18.55;12.27;;;;;;;;;;4978411;28;20026;-57
2023/04/19 06:00:07;;;;;;;16.23;11.45;;;;;;;;;;4974414;28;20027;-53
2023/04/19 06:02:49;;;;;;;18.35;11.80;;;;;;;;;;4979911;28;20042;-54
2023/04/19 06:05:15;;;;;;;16.60;11.55;;;;;;;;;;4981697;28;20414;-56
2023/04/19 06:07:40;;;;;;;18.55;11.38;;;;;;;;;;4978927;28;20026;-56
2023/04/19 06:10:06;;;;;;;17.67;11.43;;;;;;;;;;4976486;28;20030;-55
2023/04/19 06:12:31;;;;;;;15.70;11.43;;;;;;;;;;4980829;28;20092;-50
2023/04/19 06:14:57;;;;;;;17.40;11.23;;;;;;;;;;4979779;28;20141;-52
2023/04/19 06:17:24;;;;;;;19.80;10.63;;;;;;;;;;4984097;28;20027;-53
2023/04/19 06:19:52;;;;;;;17.40;11.30;;;;;;;;;;4975752;28;20027;-49
2023/04/19 06:22:18;;;;;;;17.52;11.65;;;;;;;;;;4978635;28;20130;-56
2023/04/19 06:24:43;;;;;;;27.73;11.35;;;;;;;;;;4974397;28;20615;-53
2023/04/19 06:27:09;;;;;;;16.42;10.02;;;;;;;;;;4979395;28;20026;-53
2023/04/19 06:29:34;;;;;;;15.90;10.63;;;;;;;;;;4983412;28;20161;-55
2023/04/19 06:32:00;;;;;;;14.43;9.57;;;;;;;;;;4981693;28;20030;-55
2023/04/19 06:34:25;;;;;;;16.35;10.75;;;;;;;;;;4980266;28;20041;-51
2023/04/19 06:36:50;;;;;;;17.52;11.10;;;;;;;;;;4981135;28;20069;-55
2023/04/19 06:39:16;;;;;;;18.20;10.90;;;;;;;;;;4978552;28;20290;-54
2023/04/19 06:41:42;;;;;;;17.05;10.82;;;;;;;;;;4979754;28;20944;-55
2023/04/19 06:44:07;;;;;;;18.27;11.48;;;;;;;;;;4984231;28;20157;-57
2023/04/19 06:46:32;;;;;;;15.63;10.45;;;;;;;;;;4993875;28;20038;-54
2023/04/19 06:48:57;;;;;;;16.13;10.50;;;;;;;;;;4980109;28;20630;-55
2023/04/19 06:51:23;;;;;;;19.77;11.35;;;;;;;;;;4996802;28;20766;-56
2023/04/19 06:53:49;;;;;;;16.00;11.05;;;;;;;;;;4978836;28;20042;-56
2023/04/19 06:56:15;;;;;;;18.38;11.20;;;;;;;;;;4978952;28;20693;-58
2023/04/19 06:58:40;;;;;;;19.45;11.25;;;;;;;;;;4976484;28;20483;-54
2023/04/19 07:01:06;;;;;;;17.85;10.57;;;;;;;;;;4978958;28;20030;-53
2023/04/19 07:03:31;;;;;;;17.10;10.82;;;;;;;;;;4979047;28;20192;-58
2023/04/19 07:05:57;;;;;;;16.63;10.40;;;;;;;;;;4981834;28;20738;-56
2023/04/19 07:08:22;;;;;;;17.45;10.10;;;;;;;;;;4978252;28;20034;-53
2023/04/19 07:10:48;;;;;;;15.77;9.90;;;;;;;;;;4977200;28;20030;-53
2023/04/19 07:13:13;;;;;;;15.98;10.13;;;;;;;;;;4979398;28;20610;-58
2023/04/19 07:15:38;;;;;;;12.73;9.45;;;;;;;;;;4976609;28;20750;-56
2023/04/19 07:18:04;;;;;;;13.82;9.45;;;;;;;;;;4975539;28;20156;-55
2023/04/19 07:20:30;;;;;;;16.48;9.98;;;;;;;;;;4978719;28;20434;-53
2023/04/19 07:22:57;;;;;;;17.20;9.25;;;;;;;;;;4986870;28;20049;-55
2023/04/19 07:25:22;;;;;;;15.73;8.57;;;;;;;;;;4985016;28;20042;-53
2023/04/19 07:27:47;;;;;;;13.75;9.13;;;;;;;;;;4983449;28;20046;-56
2023/04/19 07:30:12;;;;;;;15.48;9.88;;;;;;;;;;4978237;28;20026;-52
2023/04/19 07:32:38;;;;;;;16.23;9.60;;;;;;;;;;4983316;28;20037;-51
2023/04/19 07:35:03;;;;;;;15.93;9.43;;;;;;;;;;4979982;28;20046;-54
2023/04/19 07:37:29;;;;;;;15.20;9.93;;;;;;;;;;4981572;28;20037;-56
2023/04/19 07:39:54;;;;;;;14.73;9.38;;;;;;;;;;4980783;28;20183;-54
2023/04/19 07:42:19;;;;;;;18.02;9.55;;;;;;;;;;4980884;28;20057;-56
2023/04/19 07:44:45;;;;;;;14.95;9.75;;;;;;;;;;4986603;28;20039;-56
2023/04/19 07:47:10;;;;;;;18.30;10.02;;;;;;;;;;4983887;28;20030;-54
2023/04/19 07:49:36;;;;;;;13.73;9.65;;;;;;;;;;4980588;28;20169;-53
2023/04/19 07:52:02;;;;;;;17.27;10.77;;;;;;;;;;4985175;28;20658;-58
2023/04/19 07:54:28;;;;;;;15.32;10.38;;;;;;;;;;4982422;28;20038;-56
2023/04/19 07:56:53;;;;;;;15.77;10.70;;;;;;;;;;4980952;28;20479;-54
2023/04/19 07:59:18;;;;;;;12.45;9.13;;;;;;;;;;4978658;28;20059;-53
2023/04/19 08:01:44;;;;;;;14.80;9.10;;;;;;;;;;4982869;28;20034;-54
2023/04/19 08:04:09;;;;;;;14.65;9.48;;;;;;;;;;4983820;28;20027;-53
2023/04/19 08:06:37;;;;;;;15.07;10.50;;;;;;;;;;4978709;28;20043;-55
2023/04/19 08:09:02;;;;;;;14.15;9.20;;;;;;;;;;4979024;28;20034;-57
2023/04/19 08:11:27;;;;;;;15.18;9.88;;;;;;;;;;4981898;28;20034;-55
2023/04/19 08:13:53;;;;;;;13.38;9.20;;;;;;;;;;4980121;28;20124;-57
2023/04/19 08:16:18;;;;;;;13.95;9.43;;;;;;;;;;4982544;28;20092;-56
2023/04/19 08:18:45;;;;;;;15.13;9.50;;;;;;;;;;4980786;28;20038;-55
2023/04/19 08:21:10;;;;;;;14.43;8.70;;;;;;;;;;4979073;28;20062;-52
2023/04/19 08:23:35;;;;;;;13.05;9.55;;;;;;;;;;4978462;28;20058;-58
2023/04/19 08:26:01;;;;;;;17.88;9.82;;;;;;;;;;4982487;28;20472;-57
2023/04/19 08:28:26;;;;;;;16.90;10.40;;;;;;;;;;4980957;28;20026;-56
2023/04/19 08:30:51;;;;;;;15.50;10.90;;;;;;;;;;4980860;28;20133;-55
2023/04/19 08:33:17;;;;;;;15.52;10.65;;;;;;;;;;4980534;28;20041;-53
2023/04/19 08:35:44;;;;;;;15.27;9.98;;;;;;;;;;4982121;28;20106;-55
2023/04/19 08:38:09;;;;;;;;;;;;;;;;;;4985135;28;20038;-55
2023/04/19 08:40:36;;;;;;;17.65;10.27;;;;;;;;;;4984830;28;19913;-55
2023/04/19 08:43:04;;;;;;;16.90;9.90;;;;;;;;;;4984238;28;20042;-55
2023/04/19 08:45:30;;;;;;;13.02;9.52;;;;;;;;;;4980491;28;20035;-56
2023/04/19 08:47:56;;;;;;;14.77;9.90;;;;;;;;;;4983686;28;20088;-53
2023/04/19 08:50:21;;;;;;;13.15;9.18;;;;;;;;;;4982352;28;20033;-57
2023/04/19 08:52:47;;;;;;;14.23;9.85;;;;;;;;;;4985905;28;20030;-54
2023/04/19 08:55:12;;;;;;;12.02;8.43;;;;;;;;;;4979564;28;20035;-58
2023/04/19 08:57:37;;;;;;;12.93;9.07;;;;;;;;;;4980654;28;20126;-57
2023/04/19 09:00:10;;;;;;;14.80;8.68;;;;;;;;;;4980390;28;20125;-55
2023/04/19 09:02:51;;;;;;;15.32;9.35;;;;;;;;;;4995106;28;20049;-57
2023/04/19 09:05:17;;;;;;;13.93;9.43;;;;;;;;;;4980878;28;20042;-51
2023/04/19 09:07:43;;;;;;;14.10;9.15;;;;;;;;;;4983266;28;20416;-56
2023/04/19 09:10:09;;;;;;;17.58;8.88;;;;;;;;;;4978498;28;20030;-51
2023/04/19 09:12:35;;;;;;;15.88;10.30;;;;;;;;;;4979832;28;20400;-51
2023/04/19 09:15:04;;;;;;;15.45;9.93;;;;;;;;;;4979967;28;20048;-56
2023/04/19 09:17:30;;;;;;;15.85;10.43;;;;;;;;;;4983781;28;20026;-57
2023/04/19 09:19:56;;;;;;;18.35;10.52;;;;;;;;;;4980337;28;20039;-53
2023/04/19 09:22:21;;;;;;;14.50;9.38;;;;;;;;;;4984013;28;20037;-54
2023/04/19 09:24:47;;;;;;;14.20;9.05;;;;;;;;;;4976832;28;20027;-54
2023/04/19 09:27:14;;;;;;;12.95;8.95;;;;;;;;;;4980205;28;20570;-52
2023/04/19 09:29:39;;;;;;;12.55;9.07;;;;;;;;;;4995398;28;20045;-54
2023/04/19 09:32:05;;;;;;;14.93;9.52;;;;;;;;;;4985137;28;20030;-53
2023/04/19 09:34:30;;;;;;;18.05;9.30;;;;;;;;;;4981343;28;20046;-55
2023/04/19 09:36:55;;;;;;;15.13;9.98;;;;;;;;;;4981321;28;20114;-57
2023/04/19 09:39:30;;;;;;;13.07;9.10;;;;;;;;;;4981259;28;20038;-51
2023/04/19 09:41:57;;;;;;;15.05;8.90;;;;;;;;;;4978497;28;20046;-55
2023/04/19 09:44:22;;;;;;;14.10;9.37;;;;;;;;;;4977722;28;20156;-53
2023/04/19 09:46:50;;;;;;;14.40;8.50;;;;;;;;;;4981082;28;20895;-50
2023/04/19 09:49:21;;;;;;;13.93;8.55;;;;;;;;;;4993440;28;20031;-50
2023/04/19 09:51:47;;;;;;;13.35;8.95;;;;;;;;;;4996444;28;20041;-57
2023/04/19 09:54:13;;;;;;;14.55;9.68;;;;;;;;;;4998166;28;20038;-54
2023/04/19 09:56:39;;;;;;;16.85;9.88;;;;;;;;;;4977627;28;20790;-54
2023/04/19 09:59:05;;;;;;;13.88;9.13;;;;;;;;;;4980974;28;20423;-52
2023/04/19 10:01:33;;;;;;;14.75;10.10;;;;;;;;;;4985704;28;20061;-59
2023/04/19 10:03:58;;;;;;;14.25;9.13;;;;;;;;;;4978925;28;20389;-56
2023/04/19 10:06:24;;;;;;;15.18;10.27;;;;;;;;;;4977166;28;20621;-53
2023/04/19 10:08:52;;;;;;;12.00;8.18;;;;;;;;;;4978952;28;20038;-54
2023/04/19 10:11:19;;;;;;;15.07;9.85;;;;;;;;;;4984109;28;20041;-55
2023/04/19 10:13:45;;;;;;;15.15;9.93;;;;;;;;;;4981406;28;20061;-56
2023/04/19 10:16:10;;;;;;;14.25;9.13;;;;;;;;;;4978059;28;20597;-57
2023/04/19 10:18:36;;;;;;;16.65;9.57;;;;;;;;;;4981850;28;20469;-54
2023/04/19 10:21:05;;;;;;;13.35;9.40;;;;;;;;;;4984302;28;20159;-58
2023/04/19 10:23:31;;;;;;;13.88;8.93;;;;;;;;;;4979951;28;20034;-53
2023/04/19 10:25:57;;;;;;;15.43;9.57;;;;;;;;;;4978699;28;20046;-53
2023/04/19 10:28:22;;;;;;;13.27;8.77;;;;;;;;;;4980533;28;20088;-56
2023/04/19 10:30:55;;;;;;;13.77;9.80;;;;;;;;;;4981164;28;20033;-54
2023/04/19 10:33:27;;;;;;;15.32;9.60;;;;;;;;;;4978906;28;20388;-55
2023/04/19 10:35:56;;;;;;;13.27;8.93;;;;;;;;;;4979215;28;20034;-54
2023/04/19 10:38:34;;;;;;;14.15;10.15;;;;;;;;;;4980152;28;20042;-56
2023/04/19 10:41:00;;;;;;;15.45;9.90;;;;;;;;;;4976554;28;20034;-57
2023/04/19 10:43:26;;;;;;;17.30;10.82;;;;;;;;;;4979019;28;20049;-56
2023/04/19 10:45:52;;;;;;;16.50;11.03;;;;;;;;;;4979658;28;20113;-57
2023/04/19 10:48:31;;;;;;;16.65;10.50;;;;;;;;;;4982999;28;20061;-56
2023/04/19 10:51:01;;;;;;;14.50;10.60;;;;;;;;;;4977149;28;20058;-53
2023/04/19 10:53:53;;;;;;;20.95;11.88;;;;;;;;;;4976596;28;20030;-54
2023/04/19 10:56:19;;;;;;;22.80;11.77;;;;;;;;;;4961583;28;20779;-55
2023/04/19 10:59:00;;;;;;;19.83;13.25;;;;;;;;;;4978708;28;20461;-54
2023/04/19 11:01:44;;;;;;;19.38;12.43;;;;;;;;;;4979452;28;20040;-49
2023/04/19 11:04:17;;;;;;;19.08;13.93;;;;;;;;;;4978646;28;20038;-53
2023/04/19 11:06:51;;;;;;;22.08;14.15;;;;;;;;;;4979184;28;20161;-54
2023/04/19 11:09:33;;;;;;;22.02;13.68;;;;;;;;;;4983169;28;20038;-54
2023/04/19 11:11:59;;;;;;;22.40;13.52;;;;;;;;;;4979687;28;20484;-57
2023/04/19 11:14:25;;;;;;;23.47;15.47;;;;;;;;;;4979116;28;20039;-54
2023/04/19 11:16:51;;;;;;;23.23;14.80;;;;;;;;;;4984037;28;20282;-54
2023/04/19 11:19:16;;;;;;;26.15;14.98;;;;;;;;;;4976590;28;20387;-53
2023/04/19 11:21:44;;;;;;;24.92;14.85;;;;;;;;;;4974720;28;20041;-48
2023/04/19 11:24:09;;;;;;;21.00;13.20;;;;;;;;;;4982878;28;20266;-57
2023/04/19 11:26:35;;;;;;;21.88;14.48;;;;;;;;;;4978000;28;20531;-55
2023/04/19 11:29:00;;;;;;;21.33;13.90;;;;;;;;;;4980918;28;20049;-52
2023/04/19 11:31:25;;;;;;;25.35;14.10;;;;;;;;;;4976617;28;20026;-52
2023/04/19 11:33:51;;;;;;;20.20;12.95;;;;;;;;;;4982274;28;20042;-56
2023/04/19 11:36:16;;;;;;;21.17;14.25;;;;;;;;;;4976183;28;20424;-55
2023/04/19 11:38:46;;;;;;;19.15;13.60;;;;;;;;;;4974224;28;20042;-58
2023/04/19 11:41:11;;;;;;;21.77;13.52;;;;;;;;;;4979405;28;20124;-56
2023/04/19 11:43:36;;;;;;;22.48;14.52;;;;;;;;;;4977718;28;20794;-54
2023/04/19 11:46:05;;;;;;;26.65;14.38;;;;;;;;;;4979575;28;20735;-54
2023/04/19 11:48:31;;;;;;;20.70;13.18;;;;;;;;;;4979002;28;20030;-58
2023/04/19 11:50:57;;;;;;;20.58;13.65;;;;;;;;;;4995453;28;20034;-54
2023/04/19 11:53:23;;;;;;;19.42;13.52;;;;;;;;;;4979225;28;20034;-59
2023/04/19 11:55:56;;;;;;;21.00;13.27;;;;;;;;;;4977739;28;21910;-60
2023/04/19 11:58:31;;;;;;;19.30;13.48;;;;;;;;;;4978412;28;20026;-53
2023/04/19 12:01:06;;;;;;;18.60;12.50;;;;;;;;;;4981020;28;20677;-57
2023/04/19 12:03:32;;;;;;;18.23;13.32;;;;;;;;;;4976191;28;20444;-54
2023/04/19 12:05:59;;;;;;;22.58;13.70;;;;;;;;;;4979894;28;20114;-56
2023/04/19 12:08:31;;;;;;;20.88;12.77;;;;;;;;;;4982814;28;20035;-55
2023/04/19 12:10:56;;;;;;;20.98;12.55;;;;;;;;;;4980038;28;20030;-55
2023/04/19 12:13:23;;;;;;;20.30;13.45;;;;;;;;;;4999118;28;20108;-54
2023/04/19 12:15:48;;;;;;;19.55;13.05;;;;;;;;;;4979737;28;20443;-57
2023/04/19 12:18:14;;;;;;;20.83;13.55;;;;;;;;;;4981113;28;20100;-54
2023/04/19 12:20:47;;;;;;;22.80;13.57;;;;;;;;;;4985039;28;20383;-58
2023/04/19 12:23:15;;;;;;;17.50;11.38;;;;;;;;;;4996982;28;20120;-55
2023/04/19 12:25:41;;;;;;;18.85;11.77;;;;;;;;;;4980495;28;20026;-57
2023/04/19 12:28:07;;;;;;;16.85;10.38;;;;;;;;;;4986052;28;20107;-52
2023/04/19 12:30:34;;;;;;;17.52;11.18;;;;;;;;;;4979939;28;20038;-56
2023/04/19 12:32:59;;;;;;;16.52;11.00;;;;;;;;;;4984668;28;20593;-53
2023/04/19 12:35:28;;;;;;;16.35;9.57;;;;;;;;;;4982100;28;20035;-57
2023/04/19 12:37:54;;;;;;;14.45;9.30;;;;;;;;;;4980501;28;20102;-53
2023/04/19 12:40:20;;;;;;;13.52;8.73;;;;;;;;;;4979171;28;20056;-53
2023/04/19 12:42:45;;;;;;;14.55;10.45;;;;;;;;;;4983301;28;20027;-51
2023/04/19 12:45:11;;;;;;;15.23;9.68;;;;;;;;;;4979871;28;20092;-57
2023/04/19 12:47:37;;;;;;;19.05;9.50;;;;;;;;;;4980896;28;20051;-57
2023/04/19 12:50:02;;;;;;;14.65;9.48;;;;;;;;;;4980446;28;20031;-56
2023/04/19 12:52:27;;;;;;;17.65;9.27;;;;;;;;;;4979853;28;20033;-54
2023/04/19 12:54:53;;;;;;;13.13;9.10;;;;;;;;;;4982575;28;20038;-58
2023/04/19 12:57:18;;;;;;;16.33;9.40;;;;;;;;;;4981221;28;20403;-57
2023/04/19 12:59:43;;;;;;;13.15;9.25;;;;;;;;;;4983805;28;20476;-56
2023/04/19 13:02:09;;;;;;;13.15;9.40;;;;;;;;;;4979886;28;20065;-53
2023/04/19 13:04:34;;;;;;;13.25;9.20;;;;;;;;;;4977714;28;20084;-58
2023/04/19 13:07:00;;;;;;;14.43;9.48;;;;;;;;;;4978563;28;20034;-51
2023/04/19 13:09:28;;;;;;;11.73;8.82;;;;;;;;;;4978337;28;20042;-54
2023/04/19 13:11:53;;;;;;;13.20;8.45;;;;;;;;;;4979506;28;20073;-56
2023/04/19 13:14:19;;;;;;;15.38;9.80;;;;;;;;;;4979671;28;20466;-53
2023/04/19 13:16:44;;;;;;;12.45;8.70;;;;;;;;;;4981736;28;20536;-54
2023/04/19 13:19:10;;;;;;;12.77;8.25;;;;;;;;;;4979261;28;20026;-57
2023/04/19 13:21:35;;;;;;;12.88;8.52;;;;;;;;;;4975659;28;20106;-58
2023/04/19 13:24:01;;;;;;;12.32;8.23;;;;;;;;;;4977815;28;20038;-56
2023/04/19 13:26:26;;;;;;;12.80;8.75;;;;;;;;;;4977759;28;20026;-55
2023/04/19 13:28:51;;;;;;;12.50;7.65;;;;;;;;;;4977416;28;20019;-52
2023/04/19 13:31:17;;;;;;;14.43;8.40;;;;;;;;;;4978734;28;20035;-56
2023/04/19 13:33:42;;;;;;;12.40;8.43;;;;;;;;;;4977094;28;20031;-56
2023/04/19 13:36:07;;;;;;;13.40;7.75;;;;;;;;;;4979147;28;20456;-53
2023/04/19 13:38:33;;;;;;;13.20;8.10;;;;;;;;;;4977761;28;20037;-55
2023/04/19 13:40:58;;;;;;;11.13;8.55;;;;;;;;;;4978707;28;20644;-54
2023/04/19 13:43:24;;;;;;;13.80;8.65;;;;;;;;;;4975705;28;20038;-55
2023/04/19 13:45:49;;;;;;;13.20;8.90;;;;;;;;;;4980949;28;20651;-58
2023/04/19 13:48:14;;;;;;;12.20;8.07;;;;;;;;;;4977641;28;20496;-52
2023/04/19 13:50:40;;;;;;;13.20;8.57;;;;;;;;;;4977034;28;20186;-52
2023/04/19 13:53:05;;;;;;;11.43;7.90;;;;;;;;;;4963345;28;20038;-55
2023/04/19 13:55:30;;;;;;;10.80;8.13;;;;;;;;;;4978196;28;20041;-55
2023/04/19 13:57:56;;;;;;;11.15;7.70;;;;;;;;;;4976798;28;20416;-55
2023/04/19 14:00:21;;;;;;;12.68;7.78;;;;;;;;;;4976027;28;20034;-56
2023/04/19 14:02:46;;;;;;;12.20;8.15;;;;;;;;;;4978697;28;20597;-54
2023/04/19 14:05:12;;;;;;;12.98;7.30;;;;;;;;;;4975871;28;20069;-55
2023/04/19 14:07:40;;;;;;;10.55;7.72;;;;;;;;;;4975897;28;20022;-52
2023/04/19 14:10:06;;;;;;;11.73;7.90;;;;;;;;;;4980433;28;20096;-54
2023/04/19 14:12:32;;;;;;;10.55;7.80;;;;;;;;;;4978499;28;20039;-53
2023/04/19 14:14:58;;;;;;;11.63;7.97;;;;;;;;;;4979394;28;20068;-55
2023/04/19 14:17:23;;;;;;;9.63;7.35;;;;;;;;;;4975853;28;20122;-57